sensor_id;sensor_type;location;lat;lon;timestamp;pressure;altitude;pressure_sealevel;temperature;humidity
9289;BME280;4683;50.864;12.086;2023-02-12T00:01:39;100993.16;;;8.02;100.00
9289;BME280;4683;50.864;12.086;2023-02-12T00:04:08;101001.38;;;7.86;100.00
9289;BME280;4683;50.864;12.086;2023-02-12T00:06:38;100996.53;;;7.69;100.00
9289;BME280;4683;50.864;12.086;2023-02-12T00:09:07;100988.59;;;7.81;100.00
9289;BME280;4683;50.864;12.086;2023-02-12T00:11:37;101004.72;;;7.88;100.00
9289;BME280;4683;50.864;12.086;2023-02-12T00:14:05;101001.88;;;8.02;100.00
9289;BME280;4683;50.864;12.086;2023-02-12T00:16:34;101004.38;;;8.04;100.00
9289;BME280;4683;50.864;12.086;2023-02-12T00:19:03;101007.06;;;8.15;100.00
9289;BME280;4683;50.864;12.086;2023-02-12T00:21:32;101003.25;;;8.19;100.00
9289;BME280;4683;50.864;12.086;2023-02-12T00:24:02;101005.66;;;8.22;100.00
9289;BME280;4683;50.864;12.086;2023-02-12T00:26:31;101010.78;;;8.24;100.00
9289;BME280;4683;50.864;12.086;2023-02-12T00:29:01;101014.13;;;8.26;100.00
9289;BME280;4683;50.864;12.086;2023-02-12T00:31:31;101014.03;;;8.27;100.00
9289;BME280;4683;50.864;12.086;2023-02-12T00:34:00;101015.91;;;8.25;100.00
9289;BME280;4683;50.864;12.086;2023-02-12T00:36:30;101022.34;;;8.21;100.00
9289;BME280;4683;50.864;12.086;2023-02-12T00:38:59;101020.69;;;8.20;100.00
9289;BME280;4683;50.864;12.086;2023-02-12T00:41:31;101011.25;;;8.18;100.00
9289;BME280;4683;50.864;12.086;2023-02-12T00:44:01;101017.34;;;8.18;100.00
9289;BME280;4683;50.864;12.086;2023-02-12T00:46:32;101011.25;;;8.18;100.00
9289;BME280;4683;50.864;12.086;2023-02-12T00:49:01;101012.53;;;8.12;100.00
9289;BME280;4683;50.864;12.086;2023-02-12T00:51:30;101012.06;;;8.07;100.00
9289;BME280;4683;50.864;12.086;2023-02-12T00:53:58;101013.97;;;8.16;100.00
9289;BME280;4683;50.864;12.086;2023-02-12T00:56:27;101017.09;;;8.21;100.00
9289;BME280;4683;50.864;12.086;2023-02-12T00:58:56;101009.22;;;8.21;100.00
9289;BME280;4683;50.864;12.086;2023-02-12T01:01:27;101012.78;;;8.20;100.00
9289;BME280;4683;50.864;12.086;2023-02-12T01:03:55;101015.91;;;8.25;100.00
9289;BME280;4683;50.864;12.086;2023-02-12T01:06:25;101011.47;;;8.26;100.00
9289;BME280;4683;50.864;12.086;2023-02-12T01:08:54;101018.19;;;8.30;100.00
9289;BME280;4683;50.864;12.086;2023-02-12T01:11:23;101012.84;;;8.31;100.00
9289;BME280;4683;50.864;12.086;2023-02-12T01:13:52;101012.09;;;8.29;100.00
9289;BME280;4683;50.864;12.086;2023-02-12T01:16:23;101023.34;;;8.31;100.00
9289;BME280;4683;50.864;12.086;2023-02-12T01:18:54;101020.19;;;8.26;100.00
9289;BME280;4683;50.864;12.086;2023-02-12T01:21:25;101020.47;;;8.23;100.00
9289;BME280;4683;50.864;12.086;2023-02-12T01:23:56;101028.22;;;8.25;100.00
9289;BME280;4683;50.864;12.086;2023-02-12T01:26:25;101027.59;;;8.21;100.00
9289;BME280;4683;50.864;12.086;2023-02-12T01:28:56;101025.81;;;8.22;100.00
9289;BME280;4683;50.864;12.086;2023-02-12T01:31:27;101032.38;;;8.16;100.00
9289;BME280;4683;50.864;12.086;2023-02-12T01:33:59;101035.47;;;8.10;100.00
9289;BME280;4683;50.864;12.086;2023-02-12T01:36:29;101034.75;;;8.08;100.00
9289;BME280;4683;50.864;12.086;2023-02-12T01:38:58;101037.13;;;8.00;100.00
9289;BME280;4683;50.864;12.086;2023-02-12T01:41:32;101029.75;;;8.05;100.00
9289;BME280;4683;50.864;12.086;2023-02-12T01:44:12;101028.38;;;7.99;100.00
9289;BME280;4683;50.864;12.086;2023-02-12T01:46:45;101025.13;;;7.84;100.00
9289;BME280;4683;50.864;12.086;2023-02-12T01:49:20;101017.66;;;7.67;100.00
9289;BME280;4683;50.864;12.086;2023-02-12T01:51:54;101011.63;;;7.54;100.00
9289;BME280;4683;50.864;12.086;2023-02-12T01:54:25;101008.06;;;7.55;100.00
9289;BME280;4683;50.864;12.086;2023-02-12T01:56:54;101003.25;;;7.49;100.00
9289;BME280;4683;50.864;12.086;2023-02-12T01:59:23;101002.53;;;7.47;100.00
9289;BME280;4683;50.864;12.086;2023-02-12T02:01:52;101002.81;;;7.55;100.00
9289;BME280;4683;50.864;12.086;2023-02-12T02:04:29;100995.03;;;7.53;100.00
9289;BME280;4683;50.864;12.086;2023-02-12T02:07:02;100990.03;;;7.50;100.00
9289;BME280;4683;50.864;12.086;2023-02-12T02:09:34;100998.34;;;7.44;100.00
9289;BME280;4683;50.864;12.086;2023-02-12T02:12:05;100994.66;;;7.47;100.00
9289;BME280;4683;50.864;12.086;2023-02-12T02:15:06;100999.69;;;7.50;100.00
9289;BME280;4683;50.864;12.086;2023-02-12T02:17:49;100996.13;;;7.51;100.00
9289;BME280;4683;50.864;12.086;2023-02-12T02:20:48;100993.97;;;7.56;100.00
9289;BME280;4683;50.864;12.086;2023-02-12T02:23:44;101002.81;;;7.55;100.00
9289;BME280;4683;50.864;12.086;2023-02-12T02:32:32;101001.00;;;7.79;100.00
9289;BME280;4683;50.864;12.086;2023-02-12T02:35:10;101004.50;;;7.91;100.00
9289;BME280;4683;50.864;12.086;2023-02-12T02:37:44;101005.69;;;7.98;100.00
9289;BME280;4683;50.864;12.086;2023-02-12T02:40:19;101017.31;;;8.07;100.00
9289;BME280;4683;50.864;12.086;2023-02-12T02:42:53;101013.88;;;8.18;100.00
9289;BME280;4683;50.864;12.086;2023-02-12T02:45:26;101015.19;;;8.23;100.00
9289;BME280;4683;50.864;12.086;2023-02-12T02:48:02;101012.94;;;8.30;100.00
9289;BME280;4683;50.864;12.086;2023-02-12T02:50:35;101019.16;;;8.29;100.00
9289;BME280;4683;50.864;12.086;2023-02-12T02:53:10;101012.66;;;8.22;100.00
9289;BME280;4683;50.864;12.086;2023-02-12T02:55:45;101016.03;;;8.24;100.00
9289;BME280;4683;50.864;12.086;2023-02-12T02:58:18;101013.75;;;8.19;100.00
9289;BME280;4683;50.864;12.086;2023-02-12T03:00:52;101009.69;;;8.26;100.00
9289;BME280;4683;50.864;12.086;2023-02-12T03:03:28;101011.47;;;8.26;100.00
9289;BME280;4683;50.864;12.086;2023-02-12T03:06:04;101018.09;;;8.31;100.00
9289;BME280;4683;50.864;12.086;2023-02-12T03:08:38;101027.25;;;8.26;100.00
9289;BME280;4683;50.864;12.086;2023-02-12T03:11:14;101023.22;;;8.33;100.00
9289;BME280;4683;50.864;12.086;2023-02-12T03:13:50;101022.59;;;8.29;100.00
9289;BME280;4683;50.864;12.086;2023-02-12T03:16:24;101019.50;;;8.35;100.00
9289;BME280;4683;50.864;12.086;2023-02-12T03:19:00;101034.03;;;8.41;100.00
9289;BME280;4683;50.864;12.086;2023-02-12T03:21:34;101033.19;;;8.41;100.00
9289;BME280;4683;50.864;12.086;2023-02-12T03:24:11;101040.13;;;8.42;100.00
9289;BME280;4683;50.864;12.086;2023-02-12T03:26:44;101034.59;;;8.45;100.00
9289;BME280;4683;50.864;12.086;2023-02-12T03:29:14;101038.81;;;8.47;100.00
9289;BME280;4683;50.864;12.086;2023-02-12T03:31:54;101041.66;;;8.44;100.00
9289;BME280;4683;50.864;12.086;2023-02-12T03:34:32;101050.63;;;8.42;100.00
9289;BME280;4683;50.864;12.086;2023-02-12T03:37:09;101047.53;;;8.36;100.00
9289;BME280;4683;50.864;12.086;2023-02-12T03:39:48;101049.38;;;8.34;100.00
9289;BME280;4683;50.864;12.086;2023-02-12T03:42:26;101054.53;;;8.36;100.00
9289;BME280;4683;50.864;12.086;2023-02-12T03:45:06;101055.13;;;8.28;100.00
9289;BME280;4683;50.864;12.086;2023-02-12T03:47:45;101047.72;;;8.22;100.00
9289;BME280;4683;50.864;12.086;2023-02-12T03:50:19;101051.53;;;8.29;100.00
9289;BME280;4683;50.864;12.086;2023-02-12T03:52:50;101056.31;;;8.35;100.00
9289;BME280;4683;50.864;12.086;2023-02-12T03:55:19;101060.41;;;8.39;100.00
9289;BME280;4683;50.864;12.086;2023-02-12T03:57:56;101061.38;;;8.38;100.00
9289;BME280;4683;50.864;12.086;2023-02-12T04:00:27;101064.50;;;8.44;100.00
9289;BME280;4683;50.864;12.086;2023-02-12T04:02:56;101070.50;;;8.46;100.00
9289;BME280;4683;50.864;12.086;2023-02-12T04:05:27;101064.28;;;8.47;100.00
9289;BME280;4683;50.864;12.086;2023-02-12T04:07:56;101067.59;;;8.49;100.00
9289;BME280;4683;50.864;12.086;2023-02-12T04:10:31;101077.41;;;8.47;100.00
9289;BME280;4683;50.864;12.086;2023-02-12T04:13:11;101076.94;;;8.42;100.00
9289;BME280;4683;50.864;12.086;2023-02-12T04:16:01;101079.09;;;8.36;100.00
9289;BME280;4683;50.864;12.086;2023-02-12T04:18:39;101083.56;;;8.34;100.00
9289;BME280;4683;50.864;12.086;2023-02-12T04:21:22;101090.75;;;8.32;100.00
9289;BME280;4683;50.864;12.086;2023-02-12T04:24:04;101091.72;;;8.31;100.00
9289;BME280;4683;50.864;12.086;2023-02-12T04:26:41;101088.34;;;8.29;100.00
9289;BME280;4683;50.864;12.086;2023-02-12T04:29:21;101082.03;;;8.32;100.00
9289;BME280;4683;50.864;12.086;2023-02-12T04:31:57;101082.88;;;8.32;100.00
9289;BME280;4683;50.864;12.086;2023-02-12T04:34:34;101089.59;;;8.36;100.00
9289;BME280;4683;50.864;12.086;2023-02-12T04:37:15;101093.13;;;8.35;100.00
9289;BME280;4683;50.864;12.086;2023-02-12T04:39:44;101097.97;;;8.42;100.00
9289;BME280;4683;50.864;12.086;2023-02-12T04:42:13;101092.47;;;8.45;100.00
9289;BME280;4683;50.864;12.086;2023-02-12T04:44:42;101098.69;;;8.44;100.00
9289;BME280;4683;50.864;12.086;2023-02-12T04:47:12;101096.88;;;8.44;100.00
9289;BME280;4683;50.864;12.086;2023-02-12T04:49:41;101097.50;;;8.48;100.00
9289;BME280;4683;50.864;12.086;2023-02-12T04:52:11;101093.31;;;8.45;100.00
9289;BME280;4683;50.864;12.086;2023-02-12T04:54:39;101097.50;;;8.48;100.00
9289;BME280;4683;50.864;12.086;2023-02-12T04:57:08;101100.00;;;8.49;100.00
9289;BME280;4683;50.864;12.086;2023-02-12T04:59:37;101094.88;;;8.48;100.00
9289;BME280;4683;50.864;12.086;2023-02-12T05:02:05;101097.97;;;8.42;100.00
9289;BME280;4683;50.864;12.086;2023-02-12T05:04:33;101096.31;;;8.41;100.00
9289;BME280;4683;50.864;12.086;2023-02-12T05:07:01;101100.13;;;8.36;100.00
9289;BME280;4683;50.864;12.086;2023-02-12T05:09:31;101101.34;;;8.31;100.00
9289;BME280;4683;50.864;12.086;2023-02-12T05:11:59;101097.41;;;8.25;100.00
9289;BME280;4683;50.864;12.086;2023-02-12T05:14:28;101096.69;;;8.23;100.00
9289;BME280;4683;50.864;12.086;2023-02-12T05:16:56;101101.22;;;8.21;100.00
9289;BME280;4683;50.864;12.086;2023-02-12T05:19:25;101097.88;;;8.19;100.00
9289;BME280;4683;50.864;12.086;2023-02-12T05:21:53;101106.81;;;8.17;100.00
9289;BME280;4683;50.864;12.086;2023-02-12T05:24:21;101098.59;;;8.21;100.00
9289;BME280;4683;50.864;12.086;2023-02-12T05:26:51;101103.41;;;8.27;100.00
9289;BME280;4683;50.864;12.086;2023-02-12T05:29:20;101096.97;;;8.31;100.00
9289;BME280;4683;50.864;12.086;2023-02-12T05:31:48;101097.50;;;8.36;100.00
9289;BME280;4683;50.864;12.086;2023-02-12T05:34:17;101098.50;;;8.34;100.00
9289;BME280;4683;50.864;12.086;2023-02-12T05:36:46;101107.56;;;8.30;100.00
9289;BME280;4683;50.864;12.086;2023-02-12T05:39:14;101102.22;;;8.31;100.00
9289;BME280;4683;50.864;12.086;2023-02-12T05:41:43;101105.56;;;8.33;100.00
9289;BME280;4683;50.864;12.086;2023-02-12T05:44:12;101101.97;;;8.34;100.00
9289;BME280;4683;50.864;12.086;2023-02-12T05:46:41;101099.47;;;8.33;100.00
9289;BME280;4683;50.864;12.086;2023-02-12T05:49:10;101105.78;;;8.30;100.00
9289;BME280;4683;50.864;12.086;2023-02-12T05:51:38;101112.13;;;8.28;100.00
9289;BME280;4683;50.864;12.086;2023-02-12T05:54:07;101102.66;;;8.25;100.00
9289;BME280;4683;50.864;12.086;2023-02-12T05:56:42;101101.97;;;8.23;100.00
9289;BME280;4683;50.864;12.086;2023-02-12T05:59:16;101110.06;;;8.20;100.00
9289;BME280;4683;50.864;12.086;2023-02-12T06:01:48;101116.91;;;8.23;100.00
9289;BME280;4683;50.864;12.086;2023-02-12T06:04:20;101108.19;;;8.22;100.00
9289;BME280;4683;50.864;12.086;2023-02-12T06:06:49;101117.25;;;8.18;100.00
9289;BME280;4683;50.864;12.086;2023-02-12T06:09:18;101116.41;;;8.18;100.00
9289;BME280;4683;50.864;12.086;2023-02-12T06:11:47;101119.59;;;8.10;100.00
9289;BME280;4683;50.864;12.086;2023-02-12T06:14:19;101116.34;;;8.06;100.00
9289;BME280;4683;50.864;12.086;2023-02-12T06:16:49;101123.00;;;7.99;100.00
9289;BME280;4683;50.864;12.086;2023-02-12T06:19:18;101123.25;;;7.96;100.00
9289;BME280;4683;50.864;12.086;2023-02-12T06:21:48;101132.06;;;7.95;100.00
9289;BME280;4683;50.864;12.086;2023-02-12T06:24:17;101124.06;;;7.97;100.00
9289;BME280;4683;50.864;12.086;2023-02-12T06:26:48;101132.78;;;7.97;100.00
9289;BME280;4683;50.864;12.086;2023-02-12T06:29:18;101132.66;;;7.99;100.00
9289;BME280;4683;50.864;12.086;2023-02-12T06:31:47;101136.88;;;8.01;100.00
9289;BME280;4683;50.864;12.086;2023-02-12T06:34:16;101141.78;;;8.06;100.00
9289;BME280;4683;50.864;12.086;2023-02-12T06:36:46;101132.22;;;8.05;100.00
9289;BME280;4683;50.864;12.086;2023-02-12T06:39:15;101137.25;;;8.08;100.00
9289;BME280;4683;50.864;12.086;2023-02-12T06:41:44;101140.84;;;8.07;100.00
9289;BME280;4683;50.864;12.086;2023-02-12T06:44:13;101142.50;;;8.08;100.00
9289;BME280;4683;50.864;12.086;2023-02-12T06:46:42;101145.38;;;8.05;100.00
9289;BME280;4683;50.864;12.086;2023-02-12T06:49:12;101149.81;;;8.04;100.00
9289;BME280;4683;50.864;12.086;2023-02-12T06:51:42;101147.66;;;8.09;100.00
9289;BME280;4683;50.864;12.086;2023-02-12T06:54:15;101155.31;;;8.12;100.00
9289;BME280;4683;50.864;12.086;2023-02-12T06:56:44;101152.59;;;8.14;100.00
9289;BME280;4683;50.864;12.086;2023-02-12T06:59:14;101160.34;;;8.16;100.00
9289;BME280;4683;50.864;12.086;2023-02-12T07:01:44;101168.34;;;8.14;100.00
9289;BME280;4683;50.864;12.086;2023-02-12T07:04:13;101171.41;;;8.08;100.00
9289;BME280;4683;50.864;12.086;2023-02-12T07:06:41;101163.53;;;8.08;100.00
9289;BME280;4683;50.864;12.086;2023-02-12T07:09:10;101170.25;;;8.12;100.00
9289;BME280;4683;50.864;12.086;2023-02-12T07:11:38;101173.63;;;8.14;100.00
9289;BME280;4683;50.864;12.086;2023-02-12T07:14:06;101176.25;;;8.14;100.00
9289;BME280;4683;50.864;12.086;2023-02-12T07:16:35;101179.16;;;8.22;100.00
9289;BME280;4683;50.864;12.086;2023-02-12T07:19:05;101171.84;;;8.26;100.00
9289;BME280;4683;50.864;12.086;2023-02-12T07:21:33;101177.84;;;8.28;100.00
9289;BME280;4683;50.864;12.086;2023-02-12T07:24:02;101175.59;;;8.34;100.00
9289;BME280;4683;50.864;12.086;2023-02-12T07:26:30;101182.34;;;8.38;100.00
9289;BME280;4683;50.864;12.086;2023-02-12T07:28:58;101184.66;;;8.30;100.00
9289;BME280;4683;50.864;12.086;2023-02-12T07:31:27;101183.44;;;8.23;100.00
9289;BME280;4683;50.864;12.086;2023-02-12T07:33:58;101189.00;;;8.31;100.00
9289;BME280;4683;50.864;12.086;2023-02-12T07:36:30;101197.78;;;8.19;100.00
9289;BME280;4683;50.864;12.086;2023-02-12T07:38:59;101191.72;;;8.06;100.00
9289;BME280;4683;50.864;12.086;2023-02-12T07:41:29;101193.63;;;8.04;100.00
9289;BME280;4683;50.864;12.086;2023-02-12T07:44:00;101187.25;;;8.19;100.00
9289;BME280;4683;50.864;12.086;2023-02-12T07:46:35;101192.47;;;8.32;100.00
9289;BME280;4683;50.864;12.086;2023-02-12T07:49:06;101198.13;;;8.38;100.00
9289;BME280;4683;50.864;12.086;2023-02-12T07:51:37;101200.28;;;8.45;100.00
9289;BME280;4683;50.864;12.086;2023-02-12T07:54:06;101200.91;;;8.48;100.00
9289;BME280;4683;50.864;12.086;2023-02-12T07:56:37;101203.78;;;8.45;100.00
9289;BME280;4683;50.864;12.086;2023-02-12T07:59:10;101197.31;;;8.25;100.00
9289;BME280;4683;50.864;12.086;2023-02-12T08:01:41;101197.09;;;8.28;100.00
9289;BME280;4683;50.864;12.086;2023-02-12T08:04:12;101196.88;;;8.31;100.00
9289;BME280;4683;50.864;12.086;2023-02-12T08:06:45;101201.28;;;8.31;100.00
9289;BME280;4683;50.864;12.086;2023-02-12T08:09:18;101204.63;;;8.46;100.00
9289;BME280;4683;50.864;12.086;2023-02-12T08:11:48;101206.06;;;8.50;100.00
9289;BME280;4683;50.864;12.086;2023-02-12T08:14:20;101214.19;;;8.58;100.00
9289;BME280;4683;50.864;12.086;2023-02-12T08:16:49;101218.91;;;8.66;100.00
9289;BME280;4683;50.864;12.086;2023-02-12T08:19:18;101204.00;;;8.77;100.00
9289;BME280;4683;50.864;12.086;2023-02-12T08:21:51;101219.09;;;8.86;100.00
9289;BME280;4683;50.864;12.086;2023-02-12T08:24:20;101214.19;;;8.93;100.00
9289;BME280;4683;50.864;12.086;2023-02-12T08:26:48;101212.16;;;8.97;100.00
9289;BME280;4683;50.864;12.086;2023-02-12T08:29:19;101217.31;;;8.98;100.00
9289;BME280;4683;50.864;12.086;2023-02-12T08:31:49;101213.13;;;8.96;100.00
9289;BME280;4683;50.864;12.086;2023-02-12T08:34:24;101226.66;;;9.02;100.00
9289;BME280;4683;50.864;12.086;2023-02-12T08:36:55;101227.13;;;9.07;100.00
9289;BME280;4683;50.864;12.086;2023-02-12T08:39:25;101219.00;;;9.10;100.00
9289;BME280;4683;50.864;12.086;2023-02-12T08:41:55;101223.19;;;9.02;100.00
9289;BME280;4683;50.864;12.086;2023-02-12T08:44:24;101224.00;;;8.91;100.00
9289;BME280;4683;50.864;12.086;2023-02-12T08:46:53;101229.41;;;9.01;100.00
9289;BME280;4683;50.864;12.086;2023-02-12T08:49:24;101230.84;;;9.05;100.00
9289;BME280;4683;50.864;12.086;2023-02-12T08:51:56;101232.19;;;9.10;100.00
9289;BME280;4683;50.864;12.086;2023-02-12T08:54:28;101226.44;;;9.17;100.00
9289;BME280;4683;50.864;12.086;2023-02-12T08:56:59;101232.19;;;9.22;100.00
9289;BME280;4683;50.864;12.086;2023-02-12T08:59:28;101227.28;;;9.28;100.00
9289;BME280;4683;50.864;12.086;2023-02-12T09:01:57;101240.09;;;9.33;100.00
9289;BME280;4683;50.864;12.086;2023-02-12T09:04:27;101237.34;;;9.23;100.00
9289;BME280;4683;50.864;12.086;2023-02-12T09:06:57;101238.41;;;9.09;100.00
9289;BME280;4683;50.864;12.086;2023-02-12T09:09:25;101234.94;;;9.09;100.00
9289;BME280;4683;50.864;12.086;2023-02-12T09:11:53;101234.94;;;9.09;100.00
9289;BME280;4683;50.864;12.086;2023-02-12T09:14:22;101235.66;;;9.11;100.00
9289;BME280;4683;50.864;12.086;2023-02-12T09:16:50;101239.25;;;9.21;100.00
9289;BME280;4683;50.864;12.086;2023-02-12T09:19:19;101246.22;;;9.22;100.00
9289;BME280;4683;50.864;12.086;2023-02-12T09:21:50;101246.31;;;9.09;100.00
9289;BME280;4683;50.864;12.086;2023-02-12T09:24:20;101238.97;;;9.02;100.00
9289;BME280;4683;50.864;12.086;2023-02-12T09:26:49;101238.09;;;8.90;100.00
9289;BME280;4683;50.864;12.086;2023-02-12T09:29:17;101242.44;;;9.02;100.00
9289;BME280;4683;50.864;12.086;2023-02-12T09:31:45;101246.66;;;9.16;100.00
9289;BME280;4683;50.864;12.086;2023-02-12T09:34:14;101251.56;;;9.21;100.00
9289;BME280;4683;50.864;12.086;2023-02-12T09:36:42;101261.03;;;9.23;100.00
9289;BME280;4683;50.864;12.086;2023-02-12T09:39:11;101261.53;;;9.28;100.00
9289;BME280;4683;50.864;12.086;2023-02-12T09:42:31;101274.44;;;9.20;100.00
9289;BME280;4683;50.864;12.086;2023-02-12T09:45:12;101273.72;;;9.29;100.00
9289;BME280;4683;50.864;12.086;2023-02-12T09:47:51;101277.34;;;9.39;100.00
9289;BME280;4683;50.864;12.086;2023-02-12T09:50:39;101283.31;;;9.19;100.00
9289;BME280;4683;50.864;12.086;2023-02-12T09:53:12;101279.34;;;9.13;100.00
9289;BME280;4683;50.864;12.086;2023-02-12T09:55:42;101287.13;;;9.15;100.00
9289;BME280;4683;50.864;12.086;2023-02-12T09:58:16;101291.06;;;9.09;100.00
9289;BME280;4683;50.864;12.086;2023-02-12T10:00:47;101284.59;;;9.13;100.00
9289;BME280;4683;50.864;12.086;2023-02-12T10:03:17;101281.38;;;9.10;100.00
9289;BME280;4683;50.864;12.086;2023-02-12T10:05:49;101281.63;;;9.18;100.00
9289;BME280;4683;50.864;12.086;2023-02-12T10:08:40;101288.78;;;9.16;100.00
9289;BME280;4683;50.864;12.086;2023-02-12T10:11:52;101290.00;;;9.23;100.00
9289;BME280;4683;50.864;12.086;2023-02-12T10:14:52;101290.72;;;9.25;100.00
9289;BME280;4683;50.864;12.086;2023-02-12T10:17:35;101283.56;;;9.38;100.00
9289;BME280;4683;50.864;12.086;2023-02-12T10:20:39;101293.75;;;9.32;100.00
9289;BME280;4683;50.864;12.086;2023-02-12T10:23:34;101296.25;;;9.22;100.00
9289;BME280;4683;50.864;12.086;2023-02-12T10:26:17;101295.19;;;9.36;100.00
9289;BME280;4683;50.864;12.086;2023-02-12T10:28:46;101295.31;;;9.46;100.00
9289;BME280;4683;50.864;12.086;2023-02-12T10:31:31;101298.06;;;9.44;100.00
9289;BME280;4683;50.864;12.086;2023-02-12T10:34:13;101294.59;;;9.32;100.00
9289;BME280;4683;50.864;12.086;2023-02-12T10:36:45;101299.84;;;9.44;100.00
9289;BME280;4683;50.864;12.086;2023-02-12T10:39:21;101299.84;;;9.44;100.00
9289;BME280;4683;50.864;12.086;2023-02-12T10:41:57;101299.84;;;9.44;100.00
9289;BME280;4683;50.864;12.086;2023-02-12T10:44:29;101302.25;;;9.58;100.00
9289;BME280;4683;50.864;12.086;2023-02-12T10:46:59;101295.78;;;9.62;100.00
9289;BME280;4683;50.864;12.086;2023-02-12T10:49:30;101295.34;;;9.68;100.00
9289;BME280;4683;50.864;12.086;2023-02-12T10:52:10;101297.00;;;9.69;100.00
9289;BME280;4683;50.864;12.086;2023-02-12T10:54:42;101295.81;;;9.84;100.00
9289;BME280;4683;50.864;12.086;2023-02-12T10:57:19;101288.75;;;9.74;100.00
9289;BME280;4683;50.864;12.086;2023-02-12T10:59:50;101283.09;;;9.89;100.00
9289;BME280;4683;50.864;12.086;2023-02-12T11:02:24;101278.75;;;10.11;100.00
9289;BME280;4683;50.864;12.086;2023-02-12T11:04:55;101291.97;;;10.00;100.00
9289;BME280;4683;50.864;12.086;2023-02-12T11:07:26;101290.19;;;10.00;100.00
9289;BME280;4683;50.864;12.086;2023-02-12T11:09:56;101284.16;;;9.98;100.00
9289;BME280;4683;50.864;12.086;2023-02-12T11:12:31;101288.13;;;9.93;100.00
9289;BME280;4683;50.864;12.086;2023-02-12T11:15:09;101280.47;;;9.89;100.00
9289;BME280;4683;50.864;12.086;2023-02-12T11:17:53;101274.63;;;9.86;100.00
9289;BME280;4683;50.864;12.086;2023-02-12T11:20:25;101278.31;;;9.83;100.00
9289;BME280;4683;50.864;12.086;2023-02-12T11:22:57;101268.00;;;9.80;100.00
9289;BME280;4683;50.864;12.086;2023-02-12T11:25:29;101269.44;;;9.96;100.00
9289;BME280;4683;50.864;12.086;2023-02-12T11:28:14;101262.09;;;10.10;100.00
9289;BME280;4683;50.864;12.086;2023-02-12T11:30:51;101268.44;;;10.19;100.00
9289;BME280;4683;50.864;12.086;2023-02-12T11:33:32;101265.56;;;10.33;100.00
9289;BME280;4683;50.864;12.086;2023-02-12T11:36:12;101263.28;;;10.29;100.00
9289;BME280;4683;50.864;12.086;2023-02-12T11:38:51;101265.09;;;10.28;100.00
9289;BME280;4683;50.864;12.086;2023-02-12T11:41:31;101263.53;;;10.37;100.00
9289;BME280;4683;50.864;12.086;2023-02-12T11:44:08;101266.47;;;10.44;100.00
9289;BME280;4683;50.864;12.086;2023-02-12T11:46:39;101263.81;;;10.55;100.00
9289;BME280;4683;50.864;12.086;2023-02-12T11:49:21;101264.28;;;10.60;100.00
9289;BME280;4683;50.864;12.086;2023-02-12T11:51:51;101257.50;;;10.67;100.00
9289;BME280;4683;50.864;12.086;2023-02-12T11:54:22;101258.31;;;10.79;100.00
9289;BME280;4683;50.864;12.086;2023-02-12T11:56:52;101264.38;;;10.90;100.00
9289;BME280;4683;50.864;12.086;2023-02-12T11:59:32;101262.53;;;10.70;100.00
9289;BME280;4683;50.864;12.086;2023-02-12T12:02:15;101264.94;;;10.73;100.00
9289;BME280;4683;50.864;12.086;2023-02-12T12:04:49;101258.16;;;10.80;100.00
9289;BME280;4683;50.864;12.086;2023-02-12T12:07:24;101250.47;;;10.88;100.00
9289;BME280;4683;50.864;12.086;2023-02-12T12:09:57;101258.88;;;11.03;100.00
9289;BME280;4683;50.864;12.086;2023-02-12T12:12:37;101262.56;;;11.12;100.00
9289;BME280;4683;50.864;12.086;2023-02-12T12:15:18;101253.34;;;11.06;100.00
9289;BME280;4683;50.864;12.086;2023-02-12T12:18:24;101258.91;;;10.82;100.00
9289;BME280;4683;50.864;12.086;2023-02-12T12:21:22;101254.94;;;10.56;100.00
9289;BME280;4683;50.864;12.086;2023-02-12T12:23:59;101251.84;;;10.39;100.00
9289;BME280;4683;50.864;12.086;2023-02-12T12:26:34;101246.81;;;10.48;100.00
9289;BME280;4683;50.864;12.086;2023-02-12T12:29:10;101245.38;;;10.44;100.00
9289;BME280;4683;50.864;12.086;2023-02-12T12:31:43;101245.56;;;10.63;100.00
9289;BME280;4683;50.864;12.086;2023-02-12T12:34:23;101245.19;;;10.88;100.00
9289;BME280;4683;50.864;12.086;2023-02-12T12:37:25;101246.25;;;11.07;100.00
9289;BME280;4683;50.864;12.086;2023-02-12T12:40:22;101241.03;;;11.37;100.00
9289;BME280;4683;50.864;12.086;2023-02-12T12:43:07;101240.41;;;11.55;100.00
9289;BME280;4683;50.864;12.086;2023-02-12T12:46:26;101233.34;;;11.65;100.00
9289;BME280;4683;50.864;12.086;2023-02-12T12:49:17;101245.97;;;11.82;100.00
9289;BME280;4683;50.864;12.086;2023-02-12T12:52:13;101243.94;;;11.75;100.00
9289;BME280;4683;50.864;12.086;2023-02-12T12:55:04;101244.09;;;11.42;100.00
9289;BME280;4683;50.864;12.086;2023-02-12T12:57:45;101240.00;;;11.59;100.00
9289;BME280;4683;50.864;12.086;2023-02-12T13:00:30;101245.50;;;11.47;100.00
9289;BME280;4683;50.864;12.086;2023-02-12T13:03:55;101238.09;;;11.10;100.00
9289;BME280;4683;50.864;12.086;2023-02-12T13:07:03;101234.34;;;10.50;100.00
9289;BME280;4683;50.864;12.086;2023-02-12T13:09:57;101234.75;;;10.34;100.00
9289;BME280;4683;50.864;12.086;2023-02-12T13:12:49;101238.00;;;10.15;100.00
9289;BME280;4683;50.864;12.086;2023-02-12T13:15:30;101235.50;;;10.02;100.00
9289;BME280;4683;50.864;12.086;2023-02-12T13:18:10;101229.91;;;9.96;100.00
9289;BME280;4683;50.864;12.086;2023-02-12T13:20:48;101229.19;;;9.82;100.00
9289;BME280;4683;50.864;12.086;2023-02-12T13:23:30;101229.66;;;9.76;100.00
9289;BME280;4683;50.864;12.086;2023-02-12T13:26:10;101224.88;;;9.93;100.00
9289;BME280;4683;50.864;12.086;2023-02-12T13:28:46;101226.25;;;10.08;100.00
9289;BME280;4683;50.864;12.086;2023-02-12T13:31:19;101235.34;;;10.26;100.00
9289;BME280;4683;50.864;12.086;2023-02-12T13:33:53;101235.09;;;10.40;100.00
9289;BME280;4683;50.864;12.086;2023-02-12T13:36:23;101225.22;;;10.54;100.00
9289;BME280;4683;50.864;12.086;2023-02-12T13:38:57;101229.44;;;10.66;100.00
9289;BME280;4683;50.864;12.086;2023-02-12T13:41:29;101236.16;;;10.70;100.00